createdAt,value
2018-07-31T00:01:47.976Z,3.30
2018-07-31T00:04:16.420Z,3.00
2018-07-31T00:06:44.552Z,3.30
2018-07-31T00:09:13.036Z,2.50
2018-07-31T00:11:41.492Z,3.77
2018-07-31T00:14:09.937Z,2.93
2018-07-31T00:16:38.388Z,3.77
2018-07-31T00:19:06.871Z,3.20
2018-07-31T00:21:35.355Z,3.30
2018-07-31T00:24:03.848Z,3.30
2018-07-31T00:26:32.319Z,3.17
2018-07-31T00:29:00.755Z,2.97
2018-07-31T00:31:29.201Z,2.53
2018-07-31T00:33:57.634Z,2.83
2018-07-31T00:36:26.095Z,2.83
2018-07-31T00:38:54.546Z,3.33
2018-07-31T00:41:23.027Z,2.60
2018-07-31T00:43:51.450Z,2.73
2018-07-31T00:46:19.881Z,3.40
2018-07-31T00:48:48.337Z,3.27
2018-07-31T00:51:16.809Z,3.90
2018-07-31T00:53:45.248Z,3.33
2018-07-31T00:56:14.156Z,3.27
2018-07-31T00:58:42.622Z,2.63
2018-07-31T01:01:11.060Z,3.70
2018-07-31T01:03:39.537Z,4.57
2018-07-31T01:06:07.992Z,3.53
2018-07-31T01:08:36.453Z,2.90
2018-07-31T01:11:05.031Z,3.70
2018-07-31T01:13:33.434Z,3.37
2018-07-31T01:16:01.885Z,3.87
2018-07-31T01:18:30.310Z,3.67
2018-07-31T01:20:58.788Z,3.30
2018-07-31T01:23:27.229Z,3.67
2018-07-31T01:25:55.657Z,3.90
2018-07-31T01:28:24.125Z,4.00
2018-07-31T01:30:52.553Z,4.07
2018-07-31T01:33:21.014Z,4.73
2018-07-31T01:35:49.425Z,2.87
2018-07-31T01:38:17.904Z,3.50
2018-07-31T01:40:46.027Z,3.40
2018-07-31T01:43:14.473Z,4.57
2018-07-31T01:45:42.981Z,3.90
2018-07-31T01:48:11.368Z,3.70
2018-07-31T01:50:39.493Z,3.67
2018-07-31T01:53:07.958Z,4.20
2018-07-31T01:55:36.420Z,4.73
2018-07-31T01:58:04.877Z,3.27
2018-07-31T02:00:33.304Z,3.90
2018-07-31T02:03:01.742Z,4.30
2018-07-31T02:05:30.205Z,4.23
2018-07-31T02:07:58.652Z,4.00
2018-07-31T02:10:27.099Z,4.50
2018-07-31T02:12:55.538Z,4.03
2018-07-31T02:15:23.989Z,4.60
2018-07-31T02:17:52.587Z,4.10
2018-07-31T02:20:21.046Z,4.10
2018-07-31T02:22:49.790Z,3.60
2018-07-31T02:25:18.248Z,4.63
2018-07-31T02:27:46.685Z,4.10
2018-07-31T02:30:22.047Z,4.30
2018-07-31T02:32:51.737Z,2.80
2018-07-31T02:35:20.277Z,3.80
2018-07-31T02:37:48.747Z,4.10
2018-07-31T02:40:17.229Z,4.20
2018-07-31T02:42:45.703Z,4.90
2018-07-31T02:45:14.845Z,4.13
2018-07-31T02:47:44.256Z,4.67
2018-07-31T02:50:12.697Z,5.27
2018-07-31T02:52:41.410Z,4.00
2018-07-31T02:55:11.017Z,4.10
2018-07-31T02:57:40.229Z,3.97
2018-07-31T03:00:09.308Z,3.30
2018-07-31T03:02:37.789Z,3.63
2018-07-31T03:05:07.811Z,4.63
2018-07-31T03:07:36.225Z,4.47
2018-07-31T03:10:05.660Z,4.47
2018-07-31T03:12:34.124Z,5.00
2018-07-31T03:15:02.558Z,5.43
2018-07-31T03:17:30.995Z,3.70
2018-07-31T03:19:59.444Z,5.40
2018-07-31T03:22:27.876Z,5.30
2018-07-31T03:24:56.337Z,4.63
2018-07-31T03:27:24.771Z,4.30
2018-07-31T03:29:53.212Z,4.70
2018-07-31T03:32:21.648Z,4.73
2018-07-31T03:34:50.110Z,4.93
2018-07-31T03:37:18.524Z,4.87
2018-07-31T03:39:46.961Z,4.67
2018-07-31T03:42:15.426Z,5.63
2018-07-31T03:44:43.881Z,4.70
2018-07-31T03:47:12.320Z,4.30
2018-07-31T03:49:40.799Z,6.23
2018-07-31T03:52:09.260Z,4.67
2018-07-31T03:54:38.013Z,6.07
2018-07-31T03:57:06.529Z,3.70
2018-07-31T03:59:34.961Z,4.43
2018-07-31T04:02:03.458Z,4.93
2018-07-31T04:04:32.664Z,5.20
2018-07-31T04:07:01.102Z,6.70
2018-07-31T04:09:29.568Z,5.90
2018-07-31T04:11:58.028Z,7.10
2018-07-31T04:14:26.460Z,4.60
2018-07-31T04:16:54.987Z,6.23
2018-07-31T04:19:23.889Z,5.00
2018-07-31T04:21:52.353Z,5.10
2018-07-31T04:24:20.787Z,5.00
2018-07-31T04:26:49.325Z,5.03
2018-07-31T04:29:17.833Z,5.03
2018-07-31T04:31:46.267Z,5.83
2018-07-31T04:34:14.705Z,6.03
2018-07-31T04:36:43.168Z,6.53
2018-07-31T04:39:13.419Z,5.93
2018-07-31T04:41:42.144Z,6.10
2018-07-31T04:44:10.620Z,4.90
2018-07-31T04:46:38.744Z,7.40
2018-07-31T04:49:07.252Z,5.77
2018-07-31T04:51:35.772Z,6.27
2018-07-31T04:54:04.232Z,5.23
2018-07-31T04:56:32.371Z,5.70
2018-07-31T04:59:00.800Z,5.47
2018-07-31T05:01:29.245Z,5.80
2018-07-31T05:03:57.700Z,5.70
2018-07-31T05:06:26.124Z,5.40
2018-07-31T05:08:54.585Z,6.50
2018-07-31T05:11:23.016Z,6.17
2018-07-31T05:13:51.471Z,6.07
2018-07-31T05:16:19.973Z,5.97
2018-07-31T05:18:48.092Z,6.57
2018-07-31T05:21:16.564Z,6.30
2018-07-31T05:23:45.140Z,6.20
2018-07-31T05:26:13.581Z,6.50
2018-07-31T05:28:42.009Z,6.30
2018-07-31T05:31:10.478Z,6.20
2018-07-31T05:33:38.933Z,5.73
2018-07-31T05:36:07.398Z,6.30
2018-07-31T05:38:35.897Z,6.73
2018-07-31T05:41:04.376Z,6.37
2018-07-31T05:43:32.833Z,5.70
2018-07-31T05:46:01.293Z,5.50
2018-07-31T05:48:29.841Z,6.53
2018-07-31T05:50:58.289Z,6.10
2018-07-31T05:53:26.737Z,5.20
2018-07-31T05:55:55.204Z,5.87
2018-07-31T05:58:23.657Z,6.47
2018-07-31T06:00:52.133Z,6.10
2018-07-31T06:03:20.681Z,6.60
2018-07-31T06:05:49.133Z,5.80
2018-07-31T06:08:17.235Z,6.87
2018-07-31T06:10:45.709Z,5.97
2018-07-31T06:13:14.292Z,6.80
2018-07-31T06:15:42.905Z,6.30
2018-07-31T06:18:11.361Z,6.63
2018-07-31T06:20:39.813Z,5.30
2018-07-31T06:23:08.300Z,7.60
2018-07-31T06:25:36.791Z,6.90
2018-07-31T06:28:05.368Z,6.70
2018-07-31T06:30:33.799Z,5.57
2018-07-31T06:33:02.245Z,7.13
2018-07-31T06:35:30.697Z,7.10
2018-07-31T06:37:59.174Z,6.70
2018-07-31T06:40:27.760Z,7.17
2018-07-31T06:42:56.220Z,8.03
2018-07-31T06:45:24.918Z,7.67
2018-07-31T06:47:53.372Z,8.00
2018-07-31T06:50:21.817Z,7.87
2018-07-31T06:52:51.023Z,7.50
2018-07-31T06:55:19.472Z,7.40
2018-07-31T06:57:47.902Z,8.20
2018-07-31T07:00:16.372Z,7.83
2018-07-31T07:02:44.838Z,6.73
2018-07-31T07:05:13.305Z,7.83
2018-07-31T07:07:41.756Z,8.13
2018-07-31T07:10:10.381Z,9.23
2018-07-31T07:12:38.899Z,8.20
2018-07-31T07:15:07.576Z,8.30
2018-07-31T07:17:36.017Z,7.90
2018-07-31T07:20:04.605Z,8.47
2018-07-31T07:22:33.053Z,8.53
2018-07-31T07:25:01.532Z,7.90
2018-07-31T07:27:29.982Z,8.17
2018-07-31T07:29:58.423Z,8.20
2018-07-31T07:32:26.872Z,7.83
2018-07-31T07:34:55.334Z,6.97
2018-07-31T07:37:23.484Z,7.40
2018-07-31T07:39:51.940Z,6.90
2018-07-31T07:42:20.393Z,6.33
2018-07-31T07:44:48.841Z,7.73
2018-07-31T07:47:17.288Z,6.77
2018-07-31T07:49:45.717Z,6.70
2018-07-31T07:52:14.162Z,6.60
2018-07-31T07:54:42.606Z,6.30
2018-07-31T07:57:11.077Z,5.30
2018-07-31T07:59:39.513Z,5.20
2018-07-31T08:02:07.674Z,5.30
2018-07-31T08:04:36.127Z,5.17
2018-07-31T08:07:04.632Z,4.33
2018-07-31T08:09:33.080Z,4.67
2018-07-31T08:12:01.553Z,4.50
2018-07-31T08:14:29.990Z,5.13
2018-07-31T08:16:58.459Z,5.20
2018-07-31T08:19:26.962Z,5.30
2018-07-31T08:21:55.443Z,5.73
2018-07-31T08:24:24.041Z,4.27
2018-07-31T08:26:52.168Z,3.63
2018-07-31T08:29:20.675Z,4.00
2018-07-31T08:31:49.314Z,3.80
2018-07-31T08:34:17.782Z,3.00
2018-07-31T08:36:46.241Z,2.87
2018-07-31T08:39:14.674Z,3.17
2018-07-31T08:41:43.144Z,2.80
2018-07-31T08:44:11.596Z,3.43
2018-07-31T08:46:40.075Z,3.10
2018-07-31T08:49:08.209Z,5.17
2018-07-31T08:51:36.662Z,4.10
2018-07-31T08:54:04.817Z,4.53
2018-07-31T08:56:33.269Z,3.80
2018-07-31T08:59:01.736Z,2.80
2018-07-31T09:01:30.284Z,2.40
2018-07-31T09:03:58.781Z,2.30
2018-07-31T09:06:27.267Z,2.37
2018-07-31T09:08:55.785Z,2.40
2018-07-31T09:11:24.199Z,2.77
2018-07-31T09:13:52.678Z,2.33
2018-07-31T09:16:21.120Z,2.13
2018-07-31T09:18:49.613Z,2.90
2018-07-31T09:21:18.061Z,2.60
2018-07-31T09:23:46.545Z,2.90
2018-07-31T09:26:14.988Z,3.87
2018-07-31T09:28:43.121Z,2.20
2018-07-31T09:31:12.476Z,2.50
2018-07-31T09:33:41.238Z,2.57
2018-07-31T09:36:09.377Z,2.87
2018-07-31T09:38:37.849Z,2.70
2018-07-31T09:41:06.392Z,2.20
2018-07-31T09:43:34.893Z,1.80
2018-07-31T09:46:03.437Z,2.00
2018-07-31T09:48:31.943Z,2.10
2018-07-31T09:51:00.408Z,2.30
2018-07-31T09:53:28.873Z,2.10
2018-07-31T09:55:57.364Z,1.93
2018-07-31T09:58:25.869Z,2.50
2018-07-31T10:00:59.684Z,2.27
2018-07-31T10:03:28.161Z,1.90
2018-07-31T10:06:03.111Z,2.20
2018-07-31T10:08:31.584Z,2.13
2018-07-31T10:11:00.045Z,1.73
2018-07-31T10:13:28.164Z,1.93
2018-07-31T10:15:56.688Z,2.13
2018-07-31T10:18:25.161Z,2.83
2018-07-31T10:20:53.612Z,1.60
2018-07-31T10:23:22.065Z,1.97
2018-07-31T10:25:50.608Z,1.80
2018-07-31T10:28:18.746Z,1.77
2018-07-31T10:30:47.295Z,1.83
2018-07-31T10:33:15.697Z,2.33
2018-07-31T10:35:44.172Z,1.80
2018-07-31T10:38:12.650Z,1.93
2018-07-31T10:40:41.106Z,1.63
2018-07-31T10:43:09.582Z,2.23
2018-07-31T10:45:38.103Z,1.70
2018-07-31T10:48:06.641Z,2.07
2018-07-31T10:50:35.164Z,2.30
2018-07-31T10:53:03.605Z,2.60
2018-07-31T10:55:32.069Z,2.00
2018-07-31T10:58:00.555Z,1.97
2018-07-31T11:00:28.691Z,2.70
2018-07-31T11:02:57.167Z,2.47
2018-07-31T11:05:25.745Z,1.83
2018-07-31T11:07:54.193Z,2.33
2018-07-31T11:10:22.892Z,2.40
2018-07-31T11:12:51.376Z,2.00
2018-07-31T11:15:19.877Z,1.83
2018-07-31T11:17:48.322Z,1.97
2018-07-31T11:20:16.800Z,1.80
2018-07-31T11:22:45.272Z,1.57
2018-07-31T11:25:13.843Z,1.87
2018-07-31T11:27:42.287Z,1.50
2018-07-31T11:30:10.764Z,1.93
2018-07-31T11:32:39.201Z,1.80
2018-07-31T11:35:07.694Z,1.90
2018-07-31T11:37:36.141Z,1.37
2018-07-31T11:40:04.741Z,2.13
2018-07-31T11:42:33.197Z,1.80
2018-07-31T11:45:01.336Z,2.27
2018-07-31T11:47:29.809Z,2.17
2018-07-31T11:49:58.315Z,2.20
2018-07-31T11:52:26.778Z,1.73
2018-07-31T11:54:55.306Z,1.63
2018-07-31T11:57:23.773Z,1.50
2018-07-31T11:59:52.360Z,1.63
2018-07-31T12:02:20.848Z,1.93
2018-07-31T12:04:49.352Z,1.93
2018-07-31T12:07:17.830Z,1.90
2018-07-31T12:09:46.285Z,2.03
2018-07-31T12:12:14.762Z,1.67
2018-07-31T12:14:43.212Z,1.80
2018-07-31T12:17:11.781Z,1.83
2018-07-31T12:19:40.286Z,2.10
2018-07-31T12:22:08.775Z,1.93
2018-07-31T12:24:37.229Z,1.93
2018-07-31T12:27:05.712Z,1.73
2018-07-31T12:29:34.179Z,2.40
2018-07-31T12:32:02.757Z,1.90
2018-07-31T12:34:31.221Z,1.90
2018-07-31T12:37:00.456Z,1.67
2018-07-31T12:39:28.893Z,2.10
2018-07-31T12:41:57.369Z,1.63
2018-07-31T12:44:25.827Z,2.10
2018-07-31T12:46:54.329Z,2.27
2018-07-31T12:49:22.777Z,2.00
2018-07-31T12:51:51.233Z,2.20
2018-07-31T12:54:19.705Z,1.77
2018-07-31T12:56:48.169Z,2.07
2018-07-31T12:59:16.602Z,2.17
2018-07-31T13:01:45.075Z,2.10
2018-07-31T13:04:13.564Z,2.03
2018-07-31T13:06:42.047Z,2.13
2018-07-31T13:09:10.569Z,2.23
2018-07-31T13:11:39.042Z,1.70
2018-07-31T13:14:07.534Z,1.80
2018-07-31T13:16:36.010Z,1.93
2018-07-31T13:19:04.471Z,1.80
2018-07-31T13:21:32.961Z,2.40
2018-07-31T13:24:01.433Z,2.30
2018-07-31T13:26:29.901Z,2.60
2018-07-31T13:28:58.325Z,2.40
2018-07-31T13:31:26.768Z,1.97
2018-07-31T13:33:55.212Z,1.97
2018-07-31T13:36:23.788Z,2.07
2018-07-31T13:38:52.442Z,2.10
2018-07-31T13:41:21.329Z,1.80
2018-07-31T13:43:49.962Z,2.40
2018-07-31T13:46:18.302Z,2.40
2018-07-31T13:48:46.757Z,1.60
2018-07-31T13:51:14.863Z,2.07
2018-07-31T13:53:43.386Z,1.40
2018-07-31T13:56:12.068Z,2.10
2018-07-31T13:58:40.565Z,2.40
2018-07-31T14:01:09.024Z,2.10
2018-07-31T14:03:37.480Z,2.60
2018-07-31T14:06:06.053Z,2.47
2018-07-31T14:08:34.524Z,1.60
2018-07-31T14:11:02.995Z,1.97
2018-07-31T14:13:31.440Z,1.87
2018-07-31T14:15:59.581Z,1.87
2018-07-31T14:18:28.085Z,1.70
2018-07-31T14:20:56.556Z,1.90
2018-07-31T14:23:25.059Z,2.20
2018-07-31T14:25:53.228Z,2.37
2018-07-31T14:28:21.658Z,1.80
2018-07-31T14:30:50.186Z,2.03
2018-07-31T14:33:18.595Z,1.60
2018-07-31T14:35:47.052Z,1.67
2018-07-31T14:38:15.549Z,1.70
2018-07-31T14:40:44.044Z,1.93
2018-07-31T14:43:12.539Z,1.57
2018-07-31T14:45:41.065Z,2.07
2018-07-31T14:48:09.554Z,3.50
2018-07-31T14:50:38.026Z,2.20
2018-07-31T14:53:06.552Z,2.40
2018-07-31T14:55:35.005Z,1.60
2018-07-31T14:58:03.973Z,2.37
2018-07-31T15:00:32.456Z,2.03
2018-07-31T15:03:00.997Z,2.03
2018-07-31T15:05:29.432Z,1.87
2018-07-31T15:07:57.907Z,1.37
2018-07-31T15:10:26.361Z,1.70
2018-07-31T15:12:54.843Z,1.73
2018-07-31T15:15:22.980Z,1.30
2018-07-31T15:17:51.440Z,2.20
2018-07-31T15:20:19.870Z,1.60
2018-07-31T15:22:48.384Z,1.63
2018-07-31T15:25:16.822Z,2.07
2018-07-31T15:27:45.301Z,2.13
2018-07-31T15:30:13.417Z,1.63
2018-07-31T15:32:41.886Z,1.80
2018-07-31T15:35:10.333Z,1.80
2018-07-31T15:37:38.786Z,1.00
2018-07-31T15:40:07.406Z,1.70
2018-07-31T15:42:35.841Z,1.50
2018-07-31T15:45:04.593Z,1.27
2018-07-31T15:47:33.051Z,2.20
2018-07-31T15:50:01.515Z,1.20
2018-07-31T15:52:29.966Z,1.30
2018-07-31T15:54:58.689Z,1.60
2018-07-31T15:57:27.174Z,1.20
2018-07-31T15:59:55.636Z,1.40
2018-07-31T16:02:24.092Z,1.50
2018-07-31T16:04:52.573Z,1.77
2018-07-31T16:07:21.037Z,1.57
2018-07-31T16:09:49.502Z,2.10
2018-07-31T16:12:17.966Z,1.67
2018-07-31T16:14:46.400Z,1.87
2018-07-31T16:17:14.904Z,2.40
2018-07-31T16:19:43.357Z,1.57
2018-07-31T16:22:11.865Z,2.07
2018-07-31T16:24:40.448Z,2.30
2018-07-31T16:27:08.891Z,1.33
2018-07-31T16:29:37.390Z,1.87
2018-07-31T16:32:05.878Z,1.47
2018-07-31T16:34:34.368Z,1.50
2018-07-31T16:37:02.833Z,1.67
2018-07-31T16:39:31.296Z,1.70
2018-07-31T16:42:00.091Z,1.60
2018-07-31T16:44:28.564Z,1.40
2018-07-31T16:46:57.018Z,1.23
2018-07-31T16:49:25.507Z,1.70
2018-07-31T16:51:53.944Z,1.20
2018-07-31T16:54:22.394Z,1.30
2018-07-31T16:56:50.900Z,1.23
2018-07-31T16:59:19.345Z,1.40
2018-07-31T17:01:47.876Z,1.50
2018-07-31T17:04:16.418Z,1.57
2018-07-31T17:06:44.899Z,1.50
2018-07-31T17:09:13.382Z,1.53
2018-07-31T17:11:41.956Z,1.50
2018-07-31T17:14:10.401Z,1.60
2018-07-31T17:16:38.867Z,1.87
2018-07-31T17:19:07.344Z,1.90
2018-07-31T17:21:35.800Z,2.20
2018-07-31T17:24:04.274Z,2.00
2018-07-31T17:26:32.705Z,1.97
2018-07-31T17:29:00.911Z,2.10
2018-07-31T17:31:29.357Z,1.50
2018-07-31T17:33:58.461Z,1.93
2018-07-31T17:39:11.162Z,1.90
2018-07-31T17:41:40.159Z,1.47
2018-07-31T17:44:08.843Z,1.30
2018-07-31T17:46:37.273Z,1.97
2018-07-31T17:49:06.073Z,1.97
2018-07-31T17:51:34.538Z,1.30
2018-07-31T17:54:03.049Z,1.60
2018-07-31T17:56:31.493Z,1.60
2018-07-31T17:58:59.972Z,1.57
2018-07-31T18:01:28.436Z,1.80
2018-07-31T18:03:56.880Z,1.70
2018-07-31T18:06:25.325Z,1.97
2018-07-31T18:08:53.803Z,2.50
2018-07-31T18:11:22.092Z,2.17
2018-07-31T18:13:50.534Z,1.90
2018-07-31T18:16:19.003Z,1.83
2018-07-31T18:18:47.502Z,2.00
2018-07-31T18:21:15.941Z,1.40
2018-07-31T18:23:44.451Z,1.63
2018-07-31T18:26:12.868Z,2.03
2018-07-31T18:28:41.292Z,2.30
2018-07-31T18:31:09.741Z,2.07
2018-07-31T18:33:38.185Z,2.37
2018-07-31T18:36:06.701Z,2.23
2018-07-31T18:38:35.133Z,2.20
2018-07-31T18:41:03.723Z,2.67
2018-07-31T18:43:32.206Z,2.10
2018-07-31T18:46:00.663Z,2.33
2018-07-31T18:48:29.124Z,2.00
2018-07-31T18:50:57.573Z,1.90
2018-07-31T18:53:26.044Z,1.60
2018-07-31T18:55:54.492Z,1.60
2018-07-31T18:58:23.414Z,2.43
2018-07-31T19:00:51.929Z,2.27
2018-07-31T19:03:20.381Z,1.97
2018-07-31T19:05:48.817Z,1.90
2018-07-31T19:08:17.277Z,1.93
2018-07-31T19:10:45.721Z,2.00
2018-07-31T19:13:14.208Z,2.20
2018-07-31T19:15:42.657Z,2.13
2018-07-31T19:18:11.410Z,2.23
2018-07-31T19:20:39.892Z,2.00
2018-07-31T19:23:08.396Z,1.93
2018-07-31T19:25:36.531Z,1.83
2018-07-31T19:28:04.714Z,2.17
2018-07-31T19:30:32.800Z,3.03
2018-07-31T19:33:01.259Z,2.00
2018-07-31T19:35:29.746Z,2.33
2018-07-31T19:37:58.253Z,2.70
2018-07-31T19:40:26.752Z,2.50
2018-07-31T19:42:55.185Z,4.00
2018-07-31T19:45:23.698Z,4.13
2018-07-31T19:47:52.341Z,3.30
2018-07-31T19:50:21.133Z,2.73
2018-07-31T19:52:49.618Z,3.40
2018-07-31T19:55:18.104Z,3.43
2018-07-31T19:57:48.640Z,3.27
2018-07-31T20:00:17.157Z,3.63
2018-07-31T20:02:45.657Z,4.00
2018-07-31T20:05:14.120Z,3.07
2018-07-31T20:07:42.560Z,3.10
2018-07-31T20:10:11.055Z,3.90
2018-07-31T20:12:39.523Z,3.67
2018-07-31T20:15:08.053Z,3.20
2018-07-31T20:17:36.466Z,4.80
2018-07-31T20:20:05.190Z,2.83
2018-07-31T20:22:33.644Z,3.93
2018-07-31T20:25:03.272Z,3.33
2018-07-31T20:27:31.834Z,3.77
2018-07-31T20:30:00.013Z,4.60
2018-07-31T20:32:28.476Z,3.53
2018-07-31T20:34:56.921Z,3.77
2018-07-31T20:37:25.409Z,4.10
2018-07-31T20:39:53.896Z,5.33
2018-07-31T20:42:22.326Z,3.50
2018-07-31T20:44:50.773Z,3.70
2018-07-31T20:47:19.238Z,4.03
2018-07-31T20:49:47.682Z,4.03
2018-07-31T20:52:15.791Z,4.10
2018-07-31T20:54:44.253Z,4.93
2018-07-31T20:57:12.882Z,5.33
2018-07-31T20:59:41.084Z,3.73
2018-07-31T21:02:09.497Z,4.10
2018-07-31T21:04:37.620Z,4.47
2018-07-31T21:07:06.285Z,3.90
2018-07-31T21:09:34.745Z,3.70
2018-07-31T21:12:02.884Z,4.00
2018-07-31T21:14:31.416Z,3.00
2018-07-31T21:16:59.893Z,4.03
2018-07-31T21:19:28.361Z,3.43
2018-07-31T21:21:56.869Z,3.20
2018-07-31T21:24:25.617Z,3.47
2018-07-31T21:26:54.172Z,3.00
2018-07-31T21:29:22.307Z,3.30
2018-07-31T21:31:50.800Z,3.40
2018-07-31T21:34:19.289Z,3.60
2018-07-31T21:36:47.736Z,3.30
2018-07-31T21:39:16.236Z,3.10
2018-07-31T21:41:44.648Z,3.10
2018-07-31T21:44:13.161Z,3.00
2018-07-31T21:46:41.619Z,2.53
2018-07-31T21:49:09.715Z,3.03
2018-07-31T21:51:38.228Z,3.40
2018-07-31T21:54:06.733Z,4.20
2018-07-31T21:56:34.852Z,3.43
2018-07-31T21:59:03.523Z,3.67
2018-07-31T22:01:32.012Z,2.77
2018-07-31T22:04:00.132Z,3.40
2018-07-31T22:06:28.787Z,3.67
2018-07-31T22:08:57.337Z,3.33
2018-07-31T22:11:25.787Z,3.50
2018-07-31T22:13:54.308Z,3.03
2018-07-31T22:16:22.383Z,3.03
2018-07-31T22:18:50.943Z,3.03
2018-07-31T22:21:19.424Z,3.90
2018-07-31T22:23:47.853Z,2.67
2018-07-31T22:26:16.325Z,3.20
2018-07-31T22:28:44.833Z,3.10
2018-07-31T22:31:13.242Z,2.67
2018-07-31T22:33:41.677Z,2.93
2018-07-31T22:36:10.140Z,3.30
2018-07-31T22:38:38.275Z,3.13
2018-07-31T22:41:06.738Z,2.17
2018-07-31T22:43:35.229Z,2.60
2018-07-31T22:46:03.621Z,2.73
2018-07-31T22:48:32.112Z,3.13
2018-07-31T22:51:00.548Z,2.90
2018-07-31T22:53:29.001Z,2.97
2018-07-31T22:55:57.439Z,3.17
2018-07-31T22:58:25.905Z,2.90
2018-07-31T23:00:54.357Z,3.17
2018-07-31T23:03:22.814Z,3.27
2018-07-31T23:05:51.249Z,2.50
2018-07-31T23:08:19.676Z,2.80
2018-07-31T23:10:48.172Z,2.63
2018-07-31T23:13:16.634Z,2.97
2018-07-31T23:15:45.097Z,3.70
2018-07-31T23:18:13.240Z,2.80
2018-07-31T23:20:41.717Z,3.07
2018-07-31T23:23:10.163Z,2.40
2018-07-31T23:25:38.604Z,3.30
2018-07-31T23:28:07.072Z,2.93
2018-07-31T23:30:35.535Z,2.77
2018-07-31T23:33:03.978Z,2.80
2018-07-31T23:35:32.409Z,2.60
2018-07-31T23:38:00.863Z,3.53
2018-07-31T23:40:29.283Z,2.50
2018-07-31T23:42:57.756Z,2.77
2018-07-31T23:45:26.217Z,2.23
2018-07-31T23:47:54.801Z,3.07
2018-07-31T23:50:23.293Z,2.90
2018-07-31T23:52:51.398Z,3.43
2018-07-31T23:55:19.872Z,3.33
2018-07-31T23:57:51.124Z,3.10
